Portland, Arkansas
Current Conditions -  °F | °C
As of 2:53 PM on Saturday 22 Nov 2014 (Local Time) from KLLQ Reporting Station
Clear Clear  
Wind Chill: 69°   Ceiling: Unl
Heat Index: 69°   Visibility: 10mi
Dew Point: 53°   Wind: 9mph
Humidity: 57%   Direction: 150°SSE
Pressure: 30.02"   Gusts: 21mph
Location:  33.24°N, 91.51°W
Report Text: KLLQ 222053Z AUTO 15008G18KT 10SM CLR 21/12 A3002 RMK AO2 SLP163 T02060117 56035
Loading
Personal Weather Stations






























Interactive Weather Map New forecast layout! Learn more

10-Day Weather Forecast

Advertisements
Track Severe Weather on mobile